sensor_id;sensor_type;location;lat;lon;timestamp;P1;durP1;ratioP1;P2;durP2;ratioP2
68250;SDS011;55066;51.560;4.642;2023-09-12T00:00:40;11.50;;;6.33;;
68250;SDS011;55066;51.560;4.642;2023-09-12T00:03:05;8.47;;;5.20;;
68250;SDS011;55066;51.560;4.642;2023-09-12T00:05:31;12.32;;;6.35;;
68250;SDS011;55066;51.560;4.642;2023-09-12T00:07:56;13.50;;;6.37;;
68250;SDS011;55066;51.560;4.642;2023-09-12T00:10:22;13.57;;;6.73;;
68250;SDS011;55066;51.560;4.642;2023-09-12T00:12:47;15.33;;;6.87;;
68250;SDS011;55066;51.560;4.642;2023-09-12T00:15:13;14.50;;;6.85;;
68250;SDS011;55066;51.560;4.642;2023-09-12T00:17:38;12.53;;;6.57;;
68250;SDS011;55066;51.560;4.642;2023-09-12T00:20:04;13.17;;;6.67;;
68250;SDS011;55066;51.560;4.642;2023-09-12T00:22:31;13.85;;;6.55;;
68250;SDS011;55066;51.560;4.642;2023-09-12T00:24:57;12.77;;;6.10;;
68250;SDS011;55066;51.560;4.642;2023-09-12T00:27:22;15.20;;;6.63;;
68250;SDS011;55066;51.560;4.642;2023-09-12T00:29:48;10.60;;;5.43;;
68250;SDS011;55066;51.560;4.642;2023-09-12T00:32:14;12.93;;;5.90;;
68250;SDS011;55066;51.560;4.642;2023-09-12T00:34:39;13.02;;;6.45;;
68250;SDS011;55066;51.560;4.642;2023-09-12T00:37:05;14.10;;;6.57;;
68250;SDS011;55066;51.560;4.642;2023-09-12T00:39:31;11.95;;;6.78;;
68250;SDS011;55066;51.560;4.642;2023-09-12T00:41:57;15.13;;;6.97;;
68250;SDS011;55066;51.560;4.642;2023-09-12T00:44:22;12.97;;;6.13;;
68250;SDS011;55066;51.560;4.642;2023-09-12T00:46:48;12.00;;;6.50;;
68250;SDS011;55066;51.560;4.642;2023-09-12T00:49:15;14.77;;;6.70;;
68250;SDS011;55066;51.560;4.642;2023-09-12T00:51:42;13.00;;;6.85;;
68250;SDS011;55066;51.560;4.642;2023-09-12T00:54:10;12.93;;;6.57;;
68250;SDS011;55066;51.560;4.642;2023-09-12T00:56:36;12.13;;;6.15;;
68250;SDS011;55066;51.560;4.642;2023-09-12T00:59:03;14.05;;;6.72;;
68250;SDS011;55066;51.560;4.642;2023-09-12T01:01:29;14.43;;;7.30;;
68250;SDS011;55066;51.560;4.642;2023-09-12T01:03:57;13.35;;;6.88;;
68250;SDS011;55066;51.560;4.642;2023-09-12T01:06:23;13.23;;;7.22;;
68250;SDS011;55066;51.560;4.642;2023-09-12T01:08:51;13.80;;;6.80;;
68250;SDS011;55066;51.560;4.642;2023-09-12T01:11:17;12.98;;;7.00;;
68250;SDS011;55066;51.560;4.642;2023-09-12T01:13:43;13.43;;;6.87;;
68250;SDS011;55066;51.560;4.642;2023-09-12T01:16:08;12.82;;;6.80;;
68250;SDS011;55066;51.560;4.642;2023-09-12T01:18:34;12.77;;;6.07;;
68250;SDS011;55066;51.560;4.642;2023-09-12T01:24:33;14.48;;;7.28;;
68250;SDS011;55066;51.560;4.642;2023-09-12T01:27:12;14.63;;;7.20;;
68250;SDS011;55066;51.560;4.642;2023-09-12T01:29:54;13.25;;;6.95;;
68250;SDS011;55066;51.560;4.642;2023-09-12T01:32:23;13.57;;;7.07;;
68250;SDS011;55066;51.560;4.642;2023-09-12T01:34:48;12.93;;;6.83;;
68250;SDS011;55066;51.560;4.642;2023-09-12T01:37:14;16.52;;;6.70;;
68250;SDS011;55066;51.560;4.642;2023-09-12T01:39:40;14.77;;;7.20;;
68250;SDS011;55066;51.560;4.642;2023-09-12T01:42:06;12.93;;;7.05;;
68250;SDS011;55066;51.560;4.642;2023-09-12T01:44:35;12.40;;;7.03;;
68250;SDS011;55066;51.560;4.642;2023-09-12T01:47:03;13.60;;;7.20;;
68250;SDS011;55066;51.560;4.642;2023-09-12T01:49:31;19.58;;;7.88;;
68250;SDS011;55066;51.560;4.642;2023-09-12T01:51:58;16.50;;;7.23;;
68250;SDS011;55066;51.560;4.642;2023-09-12T01:54:24;15.98;;;8.00;;
68250;SDS011;55066;51.560;4.642;2023-09-12T01:56:52;14.88;;;7.13;;
68250;SDS011;55066;51.560;4.642;2023-09-12T01:59:19;16.55;;;8.07;;
68250;SDS011;55066;51.560;4.642;2023-09-12T02:01:44;16.23;;;8.43;;
68250;SDS011;55066;51.560;4.642;2023-09-12T02:04:10;16.55;;;8.77;;
68250;SDS011;55066;51.560;4.642;2023-09-12T02:06:36;20.57;;;8.67;;
68250;SDS011;55066;51.560;4.642;2023-09-12T02:09:01;18.30;;;9.00;;
68250;SDS011;55066;51.560;4.642;2023-09-12T02:11:27;16.48;;;8.68;;
68250;SDS011;55066;51.560;4.642;2023-09-12T02:13:53;21.70;;;9.00;;
68250;SDS011;55066;51.560;4.642;2023-09-12T02:16:18;15.95;;;8.88;;
68250;SDS011;55066;51.560;4.642;2023-09-12T02:18:44;16.83;;;7.40;;
68250;SDS011;55066;51.560;4.642;2023-09-12T02:21:09;17.73;;;8.57;;
68250;SDS011;55066;51.560;4.642;2023-09-12T02:23:35;18.13;;;9.27;;
68250;SDS011;55066;51.560;4.642;2023-09-12T02:26:00;18.35;;;8.63;;
68250;SDS011;55066;51.560;4.642;2023-09-12T02:28:26;23.00;;;10.03;;
68250;SDS011;55066;51.560;4.642;2023-09-12T02:30:51;20.55;;;9.90;;
68250;SDS011;55066;51.560;4.642;2023-09-12T02:33:17;21.87;;;8.63;;
68250;SDS011;55066;51.560;4.642;2023-09-12T02:35:42;17.73;;;9.20;;
68250;SDS011;55066;51.560;4.642;2023-09-12T02:38:09;23.25;;;9.13;;
68250;SDS011;55066;51.560;4.642;2023-09-12T02:40:35;15.80;;;8.43;;
68250;SDS011;55066;51.560;4.642;2023-09-12T02:43:00;17.88;;;8.90;;
68250;SDS011;55066;51.560;4.642;2023-09-12T02:45:26;19.27;;;9.30;;
68250;SDS011;55066;51.560;4.642;2023-09-12T02:47:51;17.43;;;9.10;;
68250;SDS011;55066;51.560;4.642;2023-09-12T02:50:17;18.40;;;9.18;;
68250;SDS011;55066;51.560;4.642;2023-09-12T02:52:42;16.83;;;8.57;;
68250;SDS011;55066;51.560;4.642;2023-09-12T02:55:08;18.67;;;9.07;;
68250;SDS011;55066;51.560;4.642;2023-09-12T02:57:34;16.83;;;8.13;;
68250;SDS011;55066;51.560;4.642;2023-09-12T03:00:00;21.25;;;9.38;;
68250;SDS011;55066;51.560;4.642;2023-09-12T03:02:26;17.13;;;8.43;;
68250;SDS011;55066;51.560;4.642;2023-09-12T03:04:54;19.83;;;9.17;;
68250;SDS011;55066;51.560;4.642;2023-09-12T03:07:21;14.13;;;7.82;;
68250;SDS011;55066;51.560;4.642;2023-09-12T03:09:49;19.83;;;9.85;;
68250;SDS011;55066;51.560;4.642;2023-09-12T03:12:15;21.77;;;9.68;;
68250;SDS011;55066;51.560;4.642;2023-09-12T03:14:41;18.33;;;8.97;;
68250;SDS011;55066;51.560;4.642;2023-09-12T03:17:07;22.70;;;9.52;;
68250;SDS011;55066;51.560;4.642;2023-09-12T03:19:33;22.67;;;10.35;;
68250;SDS011;55066;51.560;4.642;2023-09-12T03:21:59;20.83;;;10.10;;
68250;SDS011;55066;51.560;4.642;2023-09-12T03:24:24;20.10;;;9.77;;
68250;SDS011;55066;51.560;4.642;2023-09-12T03:26:50;22.80;;;10.17;;
68250;SDS011;55066;51.560;4.642;2023-09-12T03:29:16;24.10;;;10.75;;
68250;SDS011;55066;51.560;4.642;2023-09-12T03:31:42;21.63;;;10.30;;
68250;SDS011;55066;51.560;4.642;2023-09-12T03:34:08;21.23;;;10.77;;
68250;SDS011;55066;51.560;4.642;2023-09-12T03:36:34;23.67;;;10.57;;
68250;SDS011;55066;51.560;4.642;2023-09-12T03:38:59;24.13;;;10.80;;
68250;SDS011;55066;51.560;4.642;2023-09-12T03:41:25;22.83;;;10.43;;
68250;SDS011;55066;51.560;4.642;2023-09-12T03:43:55;22.90;;;11.00;;
68250;SDS011;55066;51.560;4.642;2023-09-12T03:46:21;23.80;;;10.70;;
68250;SDS011;55066;51.560;4.642;2023-09-12T03:48:47;19.80;;;9.70;;
68250;SDS011;55066;51.560;4.642;2023-09-12T03:51:12;23.63;;;11.17;;
68250;SDS011;55066;51.560;4.642;2023-09-12T03:53:38;21.55;;;10.15;;
68250;SDS011;55066;51.560;4.642;2023-09-12T03:56:04;20.50;;;10.80;;
68250;SDS011;55066;51.560;4.642;2023-09-12T03:58:29;20.53;;;11.03;;
68250;SDS011;55066;51.560;4.642;2023-09-12T04:00:55;25.17;;;11.68;;
68250;SDS011;55066;51.560;4.642;2023-09-12T04:03:21;24.53;;;11.27;;
68250;SDS011;55066;51.560;4.642;2023-09-12T04:05:47;28.02;;;12.93;;
68250;SDS011;55066;51.560;4.642;2023-09-12T04:08:13;26.27;;;11.70;;
68250;SDS011;55066;51.560;4.642;2023-09-12T04:10:38;26.57;;;12.27;;
68250;SDS011;55066;51.560;4.642;2023-09-12T04:13:04;24.92;;;12.07;;
68250;SDS011;55066;51.560;4.642;2023-09-12T04:15:29;25.50;;;12.20;;
68250;SDS011;55066;51.560;4.642;2023-09-12T04:17:55;33.40;;;13.10;;
68250;SDS011;55066;51.560;4.642;2023-09-12T04:20:21;23.67;;;11.38;;
68250;SDS011;55066;51.560;4.642;2023-09-12T04:22:46;24.93;;;11.90;;
68250;SDS011;55066;51.560;4.642;2023-09-12T04:25:12;22.73;;;11.73;;
68250;SDS011;55066;51.560;4.642;2023-09-12T04:27:37;29.92;;;12.98;;
68250;SDS011;55066;51.560;4.642;2023-09-12T04:30:04;26.90;;;12.57;;
68250;SDS011;55066;51.560;4.642;2023-09-12T04:32:30;25.98;;;11.40;;
68250;SDS011;55066;51.560;4.642;2023-09-12T04:34:56;24.45;;;12.38;;
68250;SDS011;55066;51.560;4.642;2023-09-12T04:37:22;29.63;;;13.60;;
68250;SDS011;55066;51.560;4.642;2023-09-12T04:39:49;27.50;;;12.80;;
68250;SDS011;55066;51.560;4.642;2023-09-12T04:42:14;26.50;;;12.83;;
68250;SDS011;55066;51.560;4.642;2023-09-12T04:44:42;29.67;;;14.10;;
68250;SDS011;55066;51.560;4.642;2023-09-12T04:47:08;30.08;;;14.45;;
68250;SDS011;55066;51.560;4.642;2023-09-12T04:49:35;31.17;;;14.30;;
68250;SDS011;55066;51.560;4.642;2023-09-12T04:52:00;28.07;;;13.20;;
68250;SDS011;55066;51.560;4.642;2023-09-12T04:54:26;30.43;;;13.17;;
68250;SDS011;55066;51.560;4.642;2023-09-12T04:56:52;31.23;;;14.25;;
68250;SDS011;55066;51.560;4.642;2023-09-12T04:59:18;29.83;;;13.35;;
68250;SDS011;55066;51.560;4.642;2023-09-12T05:01:43;31.70;;;15.00;;
68250;SDS011;55066;51.560;4.642;2023-09-12T05:04:09;32.27;;;14.00;;
68250;SDS011;55066;51.560;4.642;2023-09-12T05:06:35;34.38;;;14.85;;
68250;SDS011;55066;51.560;4.642;2023-09-12T05:09:01;37.85;;;14.98;;
68250;SDS011;55066;51.560;4.642;2023-09-12T05:11:28;32.72;;;15.07;;
68250;SDS011;55066;51.560;4.642;2023-09-12T05:13:53;37.93;;;15.03;;
68250;SDS011;55066;51.560;4.642;2023-09-12T05:16:20;35.17;;;14.88;;
68250;SDS011;55066;51.560;4.642;2023-09-12T05:18:46;37.10;;;15.87;;
68250;SDS011;55066;51.560;4.642;2023-09-12T05:21:11;30.05;;;13.55;;
68250;SDS011;55066;51.560;4.642;2023-09-12T05:23:37;31.70;;;14.83;;
68250;SDS011;55066;51.560;4.642;2023-09-12T05:26:02;37.97;;;15.67;;
68250;SDS011;55066;51.560;4.642;2023-09-12T05:28:28;31.70;;;14.37;;
68250;SDS011;55066;51.560;4.642;2023-09-12T05:30:54;28.00;;;12.23;;
68250;SDS011;55066;51.560;4.642;2023-09-12T05:33:19;34.77;;;14.93;;
68250;SDS011;55066;51.560;4.642;2023-09-12T05:35:46;32.10;;;14.95;;
68250;SDS011;55066;51.560;4.642;2023-09-12T05:38:12;37.53;;;16.23;;
68250;SDS011;55066;51.560;4.642;2023-09-12T05:40:37;27.87;;;12.63;;
68250;SDS011;55066;51.560;4.642;2023-09-12T05:43:03;31.42;;;13.73;;
68250;SDS011;55066;51.560;4.642;2023-09-12T05:45:29;37.67;;;16.03;;
68250;SDS011;55066;51.560;4.642;2023-09-12T05:47:56;37.78;;;15.52;;
68250;SDS011;55066;51.560;4.642;2023-09-12T05:50:22;37.28;;;15.45;;
68250;SDS011;55066;51.560;4.642;2023-09-12T05:52:49;32.58;;;13.30;;
68250;SDS011;55066;51.560;4.642;2023-09-12T05:55:17;32.63;;;15.15;;
68250;SDS011;55066;51.560;4.642;2023-09-12T05:57:45;32.53;;;15.07;;
68250;SDS011;55066;51.560;4.642;2023-09-12T06:00:13;38.70;;;15.68;;
68250;SDS011;55066;51.560;4.642;2023-09-12T06:02:41;36.85;;;15.98;;
68250;SDS011;55066;51.560;4.642;2023-09-12T06:05:07;37.45;;;15.57;;
68250;SDS011;55066;51.560;4.642;2023-09-12T06:07:33;37.58;;;15.25;;
68250;SDS011;55066;51.560;4.642;2023-09-12T06:10:00;36.23;;;15.90;;
68250;SDS011;55066;51.560;4.642;2023-09-12T06:12:25;37.33;;;15.52;;
68250;SDS011;55066;51.560;4.642;2023-09-12T06:14:51;29.10;;;12.53;;
68250;SDS011;55066;51.560;4.642;2023-09-12T06:17:18;39.03;;;16.33;;
68250;SDS011;55066;51.560;4.642;2023-09-12T06:19:44;40.87;;;16.90;;
68250;SDS011;55066;51.560;4.642;2023-09-12T06:22:09;41.28;;;17.13;;
68250;SDS011;55066;51.560;4.642;2023-09-12T06:24:35;41.70;;;17.20;;
68250;SDS011;55066;51.560;4.642;2023-09-12T06:27:00;42.60;;;16.87;;
68250;SDS011;55066;51.560;4.642;2023-09-12T06:29:26;37.78;;;16.88;;
68250;SDS011;55066;51.560;4.642;2023-09-12T06:31:51;21.00;;;9.07;;
68250;SDS011;55066;51.560;4.642;2023-09-12T06:34:17;36.73;;;15.00;;
68250;SDS011;55066;51.560;4.642;2023-09-12T06:36:43;38.30;;;16.42;;
68250;SDS011;55066;51.560;4.642;2023-09-12T06:39:10;36.15;;;15.75;;
68250;SDS011;55066;51.560;4.642;2023-09-12T06:41:35;34.73;;;12.43;;
68250;SDS011;55066;51.560;4.642;2023-09-12T06:44:02;34.42;;;14.35;;
68250;SDS011;55066;51.560;4.642;2023-09-12T06:46:30;43.47;;;17.38;;
68250;SDS011;55066;51.560;4.642;2023-09-12T06:48:56;46.28;;;18.45;;
68250;SDS011;55066;51.560;4.642;2023-09-12T06:51:24;43.97;;;17.70;;
68250;SDS011;55066;51.560;4.642;2023-09-12T06:53:53;43.10;;;17.20;;
68250;SDS011;55066;51.560;4.642;2023-09-12T06:56:18;48.73;;;18.90;;
68250;SDS011;55066;51.560;4.642;2023-09-12T06:58:44;76.45;;;33.00;;
68250;SDS011;55066;51.560;4.642;2023-09-12T07:01:09;58.57;;;24.83;;
68250;SDS011;55066;51.560;4.642;2023-09-12T07:03:35;56.30;;;21.53;;
68250;SDS011;55066;51.560;4.642;2023-09-12T07:06:01;48.20;;;19.70;;
68250;SDS011;55066;51.560;4.642;2023-09-12T07:08:29;61.65;;;21.35;;
68250;SDS011;55066;51.560;4.642;2023-09-12T07:10:55;57.22;;;21.33;;
68250;SDS011;55066;51.560;4.642;2023-09-12T07:13:22;55.33;;;20.63;;
68250;SDS011;55066;51.560;4.642;2023-09-12T07:15:49;67.43;;;22.40;;
68250;SDS011;55066;51.560;4.642;2023-09-12T07:18:15;65.75;;;22.60;;
68250;SDS011;55066;51.560;4.642;2023-09-12T07:20:41;67.32;;;23.52;;
68250;SDS011;55066;51.560;4.642;2023-09-12T07:23:06;66.43;;;22.27;;
68250;SDS011;55066;51.560;4.642;2023-09-12T07:25:37;71.33;;;23.90;;
68250;SDS011;55066;51.560;4.642;2023-09-12T07:28:04;76.87;;;24.90;;
68250;SDS011;55066;51.560;4.642;2023-09-12T07:30:29;77.65;;;25.23;;
68250;SDS011;55066;51.560;4.642;2023-09-12T07:32:55;76.93;;;24.87;;
68250;SDS011;55066;51.560;4.642;2023-09-12T07:35:21;79.13;;;25.67;;
68250;SDS011;55066;51.560;4.642;2023-09-12T07:37:49;76.38;;;25.52;;
68250;SDS011;55066;51.560;4.642;2023-09-12T07:40:15;87.33;;;26.40;;
68250;SDS011;55066;51.560;4.642;2023-09-12T07:42:41;92.18;;;27.63;;
68250;SDS011;55066;51.560;4.642;2023-09-12T07:45:07;88.83;;;28.87;;
68250;SDS011;55066;51.560;4.642;2023-09-12T07:47:33;92.88;;;28.95;;
68250;SDS011;55066;51.560;4.642;2023-09-12T07:49:59;92.77;;;29.63;;
68250;SDS011;55066;51.560;4.642;2023-09-12T07:52:25;88.32;;;27.88;;
68250;SDS011;55066;51.560;4.642;2023-09-12T07:54:51;91.65;;;28.35;;
68250;SDS011;55066;51.560;4.642;2023-09-12T07:57:23;89.85;;;29.10;;
68250;SDS011;55066;51.560;4.642;2023-09-12T07:59:49;82.87;;;27.00;;
68250;SDS011;55066;51.560;4.642;2023-09-12T08:02:15;92.35;;;29.10;;
68250;SDS011;55066;51.560;4.642;2023-09-12T08:04:41;95.80;;;29.43;;
68250;SDS011;55066;51.560;4.642;2023-09-12T08:07:07;99.15;;;31.08;;
68250;SDS011;55066;51.560;4.642;2023-09-12T08:12:33;95.30;;;30.90;;
68250;SDS011;55066;51.560;4.642;2023-09-12T08:15:00;90.20;;;28.38;;
68250;SDS011;55066;51.560;4.642;2023-09-12T08:17:25;100.30;;;32.17;;
68250;SDS011;55066;51.560;4.642;2023-09-12T08:19:51;95.47;;;30.40;;
68250;SDS011;55066;51.560;4.642;2023-09-12T08:22:17;94.43;;;31.40;;
68250;SDS011;55066;51.560;4.642;2023-09-12T08:24:43;96.05;;;31.50;;
68250;SDS011;55066;51.560;4.642;2023-09-12T08:27:09;98.07;;;32.53;;
68250;SDS011;55066;51.560;4.642;2023-09-12T08:29:35;101.00;;;34.00;;
68250;SDS011;55066;51.560;4.642;2023-09-12T08:32:01;101.73;;;34.60;;
68250;SDS011;55066;51.560;4.642;2023-09-12T08:34:26;98.22;;;32.83;;
68250;SDS011;55066;51.560;4.642;2023-09-12T08:36:52;99.53;;;32.87;;
68250;SDS011;55066;51.560;4.642;2023-09-12T08:39:23;98.28;;;31.92;;
68250;SDS011;55066;51.560;4.642;2023-09-12T08:41:50;108.80;;;34.67;;
68250;SDS011;55066;51.560;4.642;2023-09-12T08:44:16;105.72;;;35.65;;
68250;SDS011;55066;51.560;4.642;2023-09-12T08:46:43;103.88;;;35.08;;
68250;SDS011;55066;51.560;4.642;2023-09-12T08:49:09;104.18;;;35.55;;
68250;SDS011;55066;51.560;4.642;2023-09-12T08:51:39;113.00;;;36.83;;
68250;SDS011;55066;51.560;4.642;2023-09-12T08:54:05;115.25;;;37.83;;
68250;SDS011;55066;51.560;4.642;2023-09-12T08:56:32;110.85;;;36.92;;
68250;SDS011;55066;51.560;4.642;2023-09-12T08:59:00;119.97;;;38.17;;
68250;SDS011;55066;51.560;4.642;2023-09-12T09:01:28;113.93;;;39.03;;
68250;SDS011;55066;51.560;4.642;2023-09-12T09:03:56;111.37;;;37.80;;
68250;SDS011;55066;51.560;4.642;2023-09-12T09:06:22;114.45;;;37.90;;
68250;SDS011;55066;51.560;4.642;2023-09-12T09:08:49;110.95;;;38.13;;
68250;SDS011;55066;51.560;4.642;2023-09-12T09:11:16;105.07;;;36.72;;
68250;SDS011;55066;51.560;4.642;2023-09-12T09:13:41;107.97;;;37.23;;
68250;SDS011;55066;51.560;4.642;2023-09-12T09:16:17;99.68;;;33.53;;
68250;SDS011;55066;51.560;4.642;2023-09-12T09:21:22;102.97;;;36.90;;
68250;SDS011;55066;51.560;4.642;2023-09-12T09:23:52;98.00;;;36.42;;
68250;SDS011;55066;51.560;4.642;2023-09-12T09:26:19;96.63;;;34.10;;
68250;SDS011;55066;51.560;4.642;2023-09-12T09:28:45;92.03;;;33.10;;
68250;SDS011;55066;51.560;4.642;2023-09-12T09:31:25;94.87;;;34.23;;
68250;SDS011;55066;51.560;4.642;2023-09-12T09:33:51;92.47;;;33.45;;
68250;SDS011;55066;51.560;4.642;2023-09-12T09:36:17;91.88;;;34.95;;
68250;SDS011;55066;51.560;4.642;2023-09-12T09:38:42;87.47;;;33.03;;
68250;SDS011;55066;51.560;4.642;2023-09-12T09:41:08;89.95;;;33.53;;
68250;SDS011;55066;51.560;4.642;2023-09-12T09:43:35;89.20;;;33.13;;
68250;SDS011;55066;51.560;4.642;2023-09-12T09:46:00;90.93;;;34.73;;
68250;SDS011;55066;51.560;4.642;2023-09-12T09:48:26;85.93;;;33.53;;
68250;SDS011;55066;51.560;4.642;2023-09-12T09:50:52;80.93;;;30.83;;
68250;SDS011;55066;51.560;4.642;2023-09-12T09:53:28;90.53;;;33.58;;
68250;SDS011;55066;51.560;4.642;2023-09-12T09:56:10;83.80;;;32.65;;
68250;SDS011;55066;51.560;4.642;2023-09-12T09:58:55;90.17;;;37.60;;
68250;SDS011;55066;51.560;4.642;2023-09-12T10:01:26;77.90;;;31.05;;
68250;SDS011;55066;51.560;4.642;2023-09-12T10:03:56;78.90;;;31.52;;
68250;SDS011;55066;51.560;4.642;2023-09-12T10:06:23;80.38;;;31.17;;
68250;SDS011;55066;51.560;4.642;2023-09-12T10:08:52;79.72;;;31.92;;
68250;SDS011;55066;51.560;4.642;2023-09-12T10:11:20;76.47;;;30.90;;
68250;SDS011;55066;51.560;4.642;2023-09-12T10:13:57;64.38;;;26.10;;
68250;SDS011;55066;51.560;4.642;2023-09-12T10:16:31;62.08;;;23.65;;
68250;SDS011;55066;51.560;4.642;2023-09-12T10:21:28;66.97;;;26.00;;
68250;SDS011;55066;51.560;4.642;2023-09-12T10:23:56;60.10;;;23.90;;
68250;SDS011;55066;51.560;4.642;2023-09-12T10:26:24;62.97;;;25.38;;
68250;SDS011;55066;51.560;4.642;2023-09-12T10:28:50;63.73;;;25.13;;
68250;SDS011;55066;51.560;4.642;2023-09-12T10:31:16;63.55;;;25.55;;
68250;SDS011;55066;51.560;4.642;2023-09-12T10:33:43;66.82;;;26.65;;
68250;SDS011;55066;51.560;4.642;2023-09-12T10:36:09;60.13;;;24.45;;
68250;SDS011;55066;51.560;4.642;2023-09-12T10:38:43;58.47;;;24.13;;
68250;SDS011;55066;51.560;4.642;2023-09-12T10:41:11;58.17;;;24.30;;
68250;SDS011;55066;51.560;4.642;2023-09-12T10:43:41;58.28;;;24.58;;
68250;SDS011;55066;51.560;4.642;2023-09-12T10:46:08;60.97;;;24.42;;
68250;SDS011;55066;51.560;4.642;2023-09-12T10:48:37;58.78;;;24.50;;
68250;SDS011;55066;51.560;4.642;2023-09-12T10:51:05;56.03;;;24.15;;
68250;SDS011;55066;51.560;4.642;2023-09-12T10:53:32;56.67;;;23.93;;
68250;SDS011;55066;51.560;4.642;2023-09-12T11:01:36;59.28;;;24.45;;
68250;SDS011;55066;51.560;4.642;2023-09-12T11:06:44;60.17;;;24.43;;
68250;SDS011;55066;51.560;4.642;2023-09-12T11:11:49;51.33;;;22.38;;
68250;SDS011;55066;51.560;4.642;2023-09-12T11:14:19;55.80;;;23.63;;
68250;SDS011;55066;51.560;4.642;2023-09-12T11:19:43;85.00;;;41.00;;
68250;SDS011;55066;51.560;4.642;2023-09-12T11:22:24;54.50;;;23.90;;
68250;SDS011;55066;51.560;4.642;2023-09-12T11:24:52;51.80;;;21.53;;
68250;SDS011;55066;51.560;4.642;2023-09-12T11:27:18;53.25;;;23.55;;
68250;SDS011;55066;51.560;4.642;2023-09-12T11:29:44;55.65;;;24.13;;
68250;SDS011;55066;51.560;4.642;2023-09-12T11:32:10;53.03;;;22.55;;
68250;SDS011;55066;51.560;4.642;2023-09-12T11:34:50;52.30;;;22.60;;
68250;SDS011;55066;51.560;4.642;2023-09-12T11:37:26;51.70;;;22.27;;
68250;SDS011;55066;51.560;4.642;2023-09-12T11:39:54;44.72;;;19.40;;
68250;SDS011;55066;51.560;4.642;2023-09-12T11:42:20;47.92;;;20.45;;
68250;SDS011;55066;51.560;4.642;2023-09-12T11:44:49;47.88;;;19.77;;
68250;SDS011;55066;51.560;4.642;2023-09-12T11:47:16;45.28;;;19.10;;
68250;SDS011;55066;51.560;4.642;2023-09-12T11:49:41;42.07;;;17.80;;
68250;SDS011;55066;51.560;4.642;2023-09-12T11:52:11;42.63;;;18.77;;
68250;SDS011;55066;51.560;4.642;2023-09-12T11:54:39;39.60;;;17.80;;
68250;SDS011;55066;51.560;4.642;2023-09-12T11:57:09;41.25;;;18.73;;
68250;SDS011;55066;51.560;4.642;2023-09-12T11:59:39;44.58;;;19.60;;
68250;SDS011;55066;51.560;4.642;2023-09-12T12:02:05;36.35;;;16.42;;
68250;SDS011;55066;51.560;4.642;2023-09-12T12:04:32;33.15;;;16.50;;
68250;SDS011;55066;51.560;4.642;2023-09-12T12:06:59;36.33;;;15.60;;
68250;SDS011;55066;51.560;4.642;2023-09-12T12:09:27;35.53;;;16.48;;
68250;SDS011;55066;51.560;4.642;2023-09-12T12:11:52;37.42;;;16.70;;
68250;SDS011;55066;51.560;4.642;2023-09-12T12:14:18;33.77;;;15.93;;
68250;SDS011;55066;51.560;4.642;2023-09-12T12:16:47;33.95;;;15.10;;
68250;SDS011;55066;51.560;4.642;2023-09-12T12:19:13;31.23;;;13.67;;
68250;SDS011;55066;51.560;4.642;2023-09-12T12:21:41;28.30;;;13.15;;
68250;SDS011;55066;51.560;4.642;2023-09-12T12:24:07;31.02;;;13.73;;
68250;SDS011;55066;51.560;4.642;2023-09-12T12:26:35;29.90;;;13.43;;
68250;SDS011;55066;51.560;4.642;2023-09-12T12:29:01;26.93;;;12.80;;
68250;SDS011;55066;51.560;4.642;2023-09-12T12:31:27;24.95;;;13.18;;
68250;SDS011;55066;51.560;4.642;2023-09-12T12:33:53;24.08;;;11.85;;
68250;SDS011;55066;51.560;4.642;2023-09-12T12:36:19;25.20;;;11.35;;
68250;SDS011;55066;51.560;4.642;2023-09-12T12:38:46;25.80;;;11.27;;
68250;SDS011;55066;51.560;4.642;2023-09-12T12:41:13;27.75;;;10.98;;
68250;SDS011;55066;51.560;4.642;2023-09-12T12:43:41;24.75;;;11.73;;
68250;SDS011;55066;51.560;4.642;2023-09-12T12:46:10;23.92;;;11.52;;
68250;SDS011;55066;51.560;4.642;2023-09-12T12:48:37;23.05;;;10.77;;
68250;SDS011;55066;51.560;4.642;2023-09-12T12:51:17;21.97;;;9.83;;
68250;SDS011;55066;51.560;4.642;2023-09-12T12:53:45;22.33;;;9.30;;
68250;SDS011;55066;51.560;4.642;2023-09-12T12:56:15;22.38;;;9.10;;
68250;SDS011;55066;51.560;4.642;2023-09-12T12:58:54;19.73;;;9.27;;
68250;SDS011;55066;51.560;4.642;2023-09-12T13:01:22;22.13;;;10.32;;
68250;SDS011;55066;51.560;4.642;2023-09-12T13:03:48;30.50;;;15.10;;
68250;SDS011;55066;51.560;4.642;2023-09-12T13:06:18;22.23;;;10.85;;
68250;SDS011;55066;51.560;4.642;2023-09-12T13:08:45;25.50;;;11.70;;
68250;SDS011;55066;51.560;4.642;2023-09-12T13:11:12;27.10;;;12.55;;
68250;SDS011;55066;51.560;4.642;2023-09-12T13:13:39;28.03;;;12.43;;
68250;SDS011;55066;51.560;4.642;2023-09-12T13:16:05;29.92;;;13.02;;
68250;SDS011;55066;51.560;4.642;2023-09-12T13:18:36;28.10;;;12.52;;
68250;SDS011;55066;51.560;4.642;2023-09-12T13:21:04;32.53;;;14.90;;
68250;SDS011;55066;51.560;4.642;2023-09-12T13:23:30;37.00;;;16.85;;
68250;SDS011;55066;51.560;4.642;2023-09-12T13:25:57;33.63;;;14.97;;
68250;SDS011;55066;51.560;4.642;2023-09-12T13:28:23;36.53;;;16.75;;
68250;SDS011;55066;51.560;4.642;2023-09-12T13:30:51;37.30;;;16.27;;
68250;SDS011;55066;51.560;4.642;2023-09-12T13:33:17;36.40;;;15.55;;
68250;SDS011;55066;51.560;4.642;2023-09-12T13:35:43;35.27;;;16.50;;
68250;SDS011;55066;51.560;4.642;2023-09-12T13:38:08;37.03;;;17.27;;
68250;SDS011;55066;51.560;4.642;2023-09-12T13:40:37;34.17;;;16.38;;
68250;SDS011;55066;51.560;4.642;2023-09-12T13:43:04;34.53;;;14.65;;
68250;SDS011;55066;51.560;4.642;2023-09-12T13:45:30;30.80;;;14.55;;
68250;SDS011;55066;51.560;4.642;2023-09-12T13:47:57;38.03;;;16.13;;
68250;SDS011;55066;51.560;4.642;2023-09-12T13:50:23;33.63;;;15.27;;
68250;SDS011;55066;51.560;4.642;2023-09-12T13:52:49;36.30;;;15.93;;
68250;SDS011;55066;51.560;4.642;2023-09-12T13:55:18;31.15;;;15.00;;
68250;SDS011;55066;51.560;4.642;2023-09-12T13:57:44;32.30;;;15.52;;
68250;SDS011;55066;51.560;4.642;2023-09-12T14:00:10;31.67;;;14.55;;
68250;SDS011;55066;51.560;4.642;2023-09-12T14:02:36;32.43;;;14.50;;
68250;SDS011;55066;51.560;4.642;2023-09-12T14:05:01;33.25;;;15.73;;
68250;SDS011;55066;51.560;4.642;2023-09-12T14:07:27;30.00;;;14.43;;
68250;SDS011;55066;51.560;4.642;2023-09-12T14:09:53;31.20;;;14.85;;
68250;SDS011;55066;51.560;4.642;2023-09-12T14:12:24;29.20;;;13.33;;
68250;SDS011;55066;51.560;4.642;2023-09-12T14:14:51;32.78;;;14.50;;
68250;SDS011;55066;51.560;4.642;2023-09-12T14:17:17;30.23;;;15.07;;
68250;SDS011;55066;51.560;4.642;2023-09-12T14:19:43;34.45;;;15.00;;
68250;SDS011;55066;51.560;4.642;2023-09-12T14:22:08;27.27;;;13.13;;
68250;SDS011;55066;51.560;4.642;2023-09-12T14:24:34;27.83;;;13.90;;
68250;SDS011;55066;51.560;4.642;2023-09-12T14:26:59;25.23;;;12.73;;
68250;SDS011;55066;51.560;4.642;2023-09-12T14:29:26;26.77;;;13.85;;
68250;SDS011;55066;51.560;4.642;2023-09-12T14:31:55;28.77;;;14.63;;
68250;SDS011;55066;51.560;4.642;2023-09-12T14:34:23;27.05;;;13.00;;
68250;SDS011;55066;51.560;4.642;2023-09-12T14:36:53;28.08;;;13.10;;
68250;SDS011;55066;51.560;4.642;2023-09-12T14:39:20;30.73;;;14.02;;
68250;SDS011;55066;51.560;4.642;2023-09-12T14:41:50;26.92;;;14.10;;
68250;SDS011;55066;51.560;4.642;2023-09-12T14:44:20;24.97;;;13.63;;
68250;SDS011;55066;51.560;4.642;2023-09-12T14:46:46;26.80;;;13.73;;